createdAt,value
2019-03-05T00:00:38.028Z,983.39
2019-03-05T00:01:38.047Z,983.4
2019-03-05T00:02:38.066Z,983.39
2019-03-05T00:03:38.084Z,983.37
2019-03-05T00:04:38.103Z,983.29
2019-03-05T00:05:38.121Z,983.37
2019-03-05T00:06:38.142Z,983.33
2019-03-05T00:07:38.159Z,983.35
2019-03-05T00:08:38.179Z,983.36
2019-03-05T00:09:38.198Z,983.29
2019-03-05T00:10:38.220Z,983.38
2019-03-05T00:11:38.234Z,983.37
2019-03-05T00:12:38.254Z,983.37
2019-03-05T00:13:38.273Z,983.36
2019-03-05T00:14:38.291Z,983.4
2019-03-05T00:15:38.310Z,983.44
2019-03-05T00:16:38.331Z,983.33
2019-03-05T00:17:38.349Z,983.36
2019-03-05T00:18:38.366Z,983.44
2019-03-05T00:19:38.385Z,983.42
2019-03-05T00:20:38.405Z,983.46
2019-03-05T00:21:38.424Z,983.45
2019-03-05T00:22:38.442Z,983.45
2019-03-05T00:23:38.461Z,983.42
2019-03-05T00:24:38.480Z,983.35
2019-03-05T00:25:38.497Z,983.4
2019-03-05T00:26:38.517Z,983.36
2019-03-05T00:27:38.535Z,983.4
2019-03-05T00:28:38.556Z,983.33
2019-03-05T00:29:38.823Z,983.35
2019-03-05T00:30:38.591Z,983.4
2019-03-05T00:31:38.615Z,983.4
2019-03-05T00:32:38.632Z,983.38
2019-03-05T00:33:38.648Z,983.38
2019-03-05T00:34:38.669Z,983.42
2019-03-05T00:35:38.687Z,983.46
2019-03-05T00:36:38.705Z,983.38
2019-03-05T00:37:38.724Z,983.36
2019-03-05T00:38:38.743Z,983.36
2019-03-05T00:39:38.764Z,983.41
2019-03-05T00:40:38.780Z,983.41
2019-03-05T00:41:38.800Z,983.35
2019-03-05T00:42:38.818Z,983.37
2019-03-05T00:43:38.838Z,983.41
2019-03-05T00:44:38.856Z,983.43
2019-03-05T00:45:38.879Z,983.34
2019-03-05T00:46:38.896Z,983.46
2019-03-05T00:47:38.915Z,983.44
2019-03-05T00:48:38.933Z,983.45
2019-03-05T00:49:38.951Z,983.47
2019-03-05T00:50:38.969Z,983.51
2019-03-05T00:51:38.988Z,983.47
2019-03-05T00:52:39.008Z,983.52
2019-03-05T00:53:39.025Z,983.48
2019-03-05T00:54:39.045Z,983.54
2019-03-05T00:55:39.063Z,983.51
2019-03-05T00:56:39.082Z,983.62
2019-03-05T00:57:39.104Z,983.52
2019-03-05T00:58:39.119Z,983.55
2019-03-05T00:59:39.138Z,983.53
2019-03-05T01:00:39.158Z,983.62
2019-03-05T01:01:39.177Z,983.54
2019-03-05T01:02:39.196Z,983.62
2019-03-05T01:03:39.214Z,983.58
2019-03-05T01:04:39.233Z,983.59
2019-03-05T01:05:39.251Z,983.7
2019-03-05T01:06:39.271Z,983.58
2019-03-05T01:07:39.293Z,983.56
2019-03-05T01:08:39.308Z,983.68
2019-03-05T01:09:39.326Z,983.61
2019-03-05T01:10:39.346Z,983.65
2019-03-05T01:11:39.365Z,983.74
2019-03-05T01:12:39.384Z,983.68
2019-03-05T01:13:39.403Z,983.66
2019-03-05T01:14:39.421Z,983.61
2019-03-05T01:15:39.440Z,983.73
2019-03-05T01:16:39.459Z,983.74
2019-03-05T01:17:39.478Z,983.65
2019-03-05T01:18:39.496Z,983.65
2019-03-05T01:19:39.515Z,983.75
2019-03-05T01:20:39.535Z,983.73
2019-03-05T01:21:39.551Z,983.69
2019-03-05T01:22:39.571Z,983.73
2019-03-05T01:23:39.594Z,983.68
2019-03-05T01:24:39.610Z,983.79
2019-03-05T01:25:39.628Z,983.74
2019-03-05T01:26:39.646Z,983.73
2019-03-05T01:27:39.667Z,983.77
2019-03-05T01:28:39.684Z,983.75
2019-03-05T01:29:39.704Z,983.78
2019-03-05T01:30:39.722Z,983.8
2019-03-05T01:31:39.741Z,983.79
2019-03-05T01:32:39.760Z,983.85
2019-03-05T01:33:39.781Z,983.84
2019-03-05T01:34:39.798Z,983.86
2019-03-05T01:35:39.815Z,983.94
2019-03-05T01:36:39.836Z,983.88
2019-03-05T01:37:39.853Z,983.81
2019-03-05T01:38:39.873Z,983.86
2019-03-05T01:39:39.892Z,983.91
2019-03-05T01:40:39.910Z,983.88
2019-03-05T01:41:39.930Z,983.9
2019-03-05T01:42:39.947Z,983.89
2019-03-05T01:43:39.965Z,983.97
2019-03-05T01:44:39.985Z,983.93
2019-03-05T01:45:40.004Z,983.99
2019-03-05T01:46:40.023Z,984.01
2019-03-05T01:47:40.044Z,983.94
2019-03-05T01:48:40.060Z,984.03
2019-03-05T01:49:40.079Z,983.94
2019-03-05T01:50:40.097Z,984.03
2019-03-05T01:51:40.116Z,983.99
2019-03-05T01:52:40.135Z,984.02
2019-03-05T01:53:40.153Z,983.99
2019-03-05T01:54:40.234Z,984
2019-03-05T01:55:40.192Z,983.99
2019-03-05T01:56:40.211Z,984.09
2019-03-05T01:57:40.228Z,984.02
2019-03-05T01:58:40.248Z,984.08
2019-03-05T01:59:40.268Z,984.02
2019-03-05T02:00:40.287Z,984.05
2019-03-05T02:01:40.304Z,984.09
2019-03-05T02:02:40.323Z,984.06
2019-03-05T02:03:40.340Z,984.16
2019-03-05T02:04:40.360Z,984.1
2019-03-05T02:05:40.382Z,984.09
2019-03-05T02:06:40.399Z,984.08
2019-03-05T02:07:40.416Z,984.08
2019-03-05T02:08:40.435Z,984.06
2019-03-05T02:09:40.453Z,984.01
2019-03-05T02:10:40.473Z,984.11
2019-03-05T02:11:40.493Z,984.16
2019-03-05T02:12:40.510Z,984.12
2019-03-05T02:13:40.528Z,984.17
2019-03-05T02:14:40.549Z,984.1
2019-03-05T02:15:40.566Z,984.14
2019-03-05T02:16:40.585Z,984.16
2019-03-05T02:17:40.605Z,984.16
2019-03-05T02:18:40.623Z,984.12
2019-03-05T02:19:40.642Z,984.14
2019-03-05T02:20:40.661Z,984.19
2019-03-05T02:21:40.682Z,984.11
2019-03-05T02:22:40.699Z,984.15
2019-03-05T02:23:40.717Z,984.12
2019-03-05T02:24:40.736Z,984.17
2019-03-05T02:25:40.755Z,984.15
2019-03-05T02:26:40.774Z,984.2
2019-03-05T02:27:40.792Z,984.13
2019-03-05T02:28:40.811Z,984.18
2019-03-05T02:29:40.830Z,984.17
2019-03-05T02:30:40.849Z,984.22
2019-03-05T02:31:40.870Z,984.16
2019-03-05T02:32:40.890Z,984.19
2019-03-05T02:33:40.906Z,984.2
2019-03-05T02:34:40.926Z,984.24
2019-03-05T02:35:40.945Z,984.22
2019-03-05T02:36:40.963Z,984.2
2019-03-05T02:37:40.982Z,984.21
2019-03-05T02:38:41.000Z,984.15
2019-03-05T02:39:41.021Z,984.19
2019-03-05T02:40:41.037Z,984.23
2019-03-05T02:41:41.056Z,984.23
2019-03-05T02:42:41.077Z,984.21
2019-03-05T02:43:41.095Z,984.26
2019-03-05T02:44:41.122Z,984.25
2019-03-05T02:45:41.144Z,984.25
2019-03-05T02:46:41.149Z,984.2
2019-03-05T02:47:41.169Z,984.29
2019-03-05T02:48:41.190Z,984.23
2019-03-05T02:49:41.220Z,984.26
2019-03-05T02:50:41.227Z,984.25
2019-03-05T02:51:41.244Z,984.26
2019-03-05T02:52:41.264Z,984.23
2019-03-05T02:53:41.283Z,984.26
2019-03-05T02:54:41.303Z,984.26
2019-03-05T02:55:41.330Z,984.26
2019-03-05T02:56:41.341Z,984.35
2019-03-05T02:57:41.359Z,984.32
2019-03-05T02:58:41.379Z,984.33
2019-03-05T02:59:41.394Z,984.31
2019-03-05T03:00:41.413Z,984.3
2019-03-05T03:01:41.436Z,984.33
2019-03-05T03:02:41.458Z,984.34
2019-03-05T03:03:41.468Z,984.28
2019-03-05T03:04:41.489Z,984.32
2019-03-05T03:05:41.508Z,984.34
2019-03-05T03:06:41.526Z,984.37
2019-03-05T03:07:41.545Z,984.33
2019-03-05T03:08:41.566Z,984.3
2019-03-05T03:09:41.585Z,984.35
2019-03-05T03:10:41.600Z,984.29
2019-03-05T03:11:41.620Z,984.31
2019-03-05T03:12:41.640Z,984.3
2019-03-05T03:13:41.656Z,984.23
2019-03-05T03:14:41.676Z,984.28
2019-03-05T03:15:41.694Z,984.28
2019-03-05T03:16:41.714Z,984.23
2019-03-05T03:17:41.730Z,984.24
2019-03-05T03:18:41.753Z,984.2
2019-03-05T03:19:41.769Z,984.34
2019-03-05T03:20:41.789Z,984.35
2019-03-05T03:21:41.808Z,984.35
2019-03-05T03:22:41.823Z,984.39
2019-03-05T03:23:41.841Z,984.37
2019-03-05T03:24:41.869Z,984.34
2019-03-05T03:25:41.878Z,984.36
2019-03-05T03:26:41.903Z,984.36
2019-03-05T03:27:41.918Z,984.44
2019-03-05T03:28:41.935Z,984.34
2019-03-05T03:29:41.954Z,984.44
2019-03-05T03:30:41.979Z,984.37
2019-03-05T03:31:41.997Z,984.42
2019-03-05T03:32:42.009Z,984.5
2019-03-05T03:33:42.035Z,984.45
2019-03-05T03:34:42.047Z,984.39
2019-03-05T03:35:42.076Z,984.4
2019-03-05T03:36:42.083Z,984.47
2019-03-05T03:37:42.101Z,984.51
2019-03-05T03:38:42.120Z,984.5
2019-03-05T03:39:42.140Z,984.5
2019-03-05T03:40:42.159Z,984.41
2019-03-05T03:41:42.176Z,984.56
2019-03-05T03:42:42.201Z,984.62
2019-03-05T03:43:42.213Z,984.53
2019-03-05T03:44:42.230Z,984.6
2019-03-05T03:45:42.249Z,984.58
2019-03-05T03:46:42.273Z,984.64
2019-03-05T03:47:42.400Z,984.6
2019-03-05T03:48:42.306Z,984.57
2019-03-05T03:49:42.324Z,984.64
2019-03-05T03:50:42.371Z,984.58
2019-03-05T03:51:42.361Z,984.6
2019-03-05T03:52:42.379Z,984.58
2019-03-05T03:53:42.404Z,984.6
2019-03-05T03:54:42.417Z,984.63
2019-03-05T03:55:42.436Z,984.61
2019-03-05T03:56:42.454Z,984.63
2019-03-05T03:57:42.474Z,984.62
2019-03-05T03:58:42.492Z,984.6
2019-03-05T03:59:42.511Z,984.6
2019-03-05T04:00:42.556Z,984.68
2019-03-05T04:01:42.547Z,984.75
2019-03-05T04:02:42.566Z,984.77
2019-03-05T04:03:42.584Z,984.82
2019-03-05T04:04:42.611Z,984.73
2019-03-05T04:05:42.620Z,984.71
2019-03-05T04:06:42.641Z,984.8
2019-03-05T04:07:42.658Z,984.8
2019-03-05T04:08:42.714Z,984.79
2019-03-05T04:09:42.696Z,984.84
2019-03-05T04:10:42.713Z,984.87
2019-03-05T04:11:42.738Z,984.99
2019-03-05T04:12:42.783Z,985.18
2019-03-05T04:13:42.769Z,985.29
2019-03-05T04:14:42.790Z,985.25
2019-03-05T04:15:42.808Z,985.29
2019-03-05T04:16:42.828Z,985.27
2019-03-05T04:17:42.843Z,985.25
2019-03-05T04:18:42.862Z,985.22
2019-03-05T04:19:42.880Z,985.26
2019-03-05T04:20:42.899Z,985.2
2019-03-05T04:21:42.916Z,985.21
2019-03-05T04:22:42.941Z,985.2
2019-03-05T04:23:42.955Z,985.17
2019-03-05T04:24:42.975Z,985.17
2019-03-05T04:25:42.994Z,985.12
2019-03-05T04:26:43.010Z,985.12
2019-03-05T04:27:43.032Z,985.15
2019-03-05T04:28:43.050Z,985.06
2019-03-05T04:29:43.065Z,985.1
2019-03-05T04:30:43.088Z,985.12
2019-03-05T04:31:43.103Z,985.14
2019-03-05T04:32:43.122Z,985.14
2019-03-05T04:33:43.141Z,985.2
2019-03-05T04:34:43.157Z,985.16
2019-03-05T04:35:43.176Z,985.19
2019-03-05T04:36:43.194Z,985.17
2019-03-05T04:37:43.214Z,985.13
2019-03-05T04:38:43.232Z,985.24
2019-03-05T04:39:43.251Z,985.21
2019-03-05T04:40:43.269Z,985.25
2019-03-05T04:41:43.287Z,985.32
2019-03-05T04:42:43.306Z,985.29
2019-03-05T04:43:43.326Z,985.27
2019-03-05T04:44:43.344Z,985.26
2019-03-05T04:45:43.361Z,985.25
2019-03-05T04:46:43.380Z,985.33
2019-03-05T04:47:43.399Z,985.23
2019-03-05T04:48:43.415Z,985.28
2019-03-05T04:49:43.438Z,985.29
2019-03-05T04:50:43.453Z,985.34
2019-03-05T04:51:43.472Z,985.31
2019-03-05T04:52:43.492Z,985.28
2019-03-05T04:53:43.511Z,985.25
2019-03-05T04:54:43.527Z,985.33
2019-03-05T04:55:43.546Z,985.34
2019-03-05T04:56:43.564Z,985.39
2019-03-05T04:57:43.583Z,985.36
2019-03-05T04:58:43.610Z,985.35
2019-03-05T04:59:43.620Z,985.34
2019-03-05T05:00:43.637Z,985.33
2019-03-05T05:01:43.656Z,985.35
2019-03-05T05:02:43.679Z,985.31
2019-03-05T05:03:43.691Z,985.32
2019-03-05T05:04:43.711Z,985.36
2019-03-05T05:05:43.730Z,985.35
2019-03-05T05:06:43.748Z,985.37
2019-03-05T05:07:43.766Z,985.37
2019-03-05T05:08:43.784Z,985.35
2019-03-05T05:09:43.803Z,985.35
2019-03-05T05:10:43.820Z,985.34
2019-03-05T05:11:43.839Z,985.36
2019-03-05T05:12:43.857Z,985.31
2019-03-05T05:13:43.877Z,985.36
2019-03-05T05:14:43.893Z,985.31
2019-03-05T05:15:43.913Z,985.36
2019-03-05T05:16:43.929Z,985.38
2019-03-05T05:17:43.950Z,985.34
2019-03-05T05:18:43.966Z,985.37
2019-03-05T05:19:43.986Z,985.34
2019-03-05T05:20:44.004Z,985.36
2019-03-05T05:21:44.023Z,985.29
2019-03-05T05:22:44.042Z,985.39
2019-03-05T05:23:44.059Z,985.39
2019-03-05T05:24:44.077Z,985.39
2019-03-05T05:25:44.096Z,985.38
2019-03-05T05:26:44.115Z,985.38
2019-03-05T05:27:44.132Z,985.37
2019-03-05T05:28:44.151Z,985.37
2019-03-05T05:29:44.171Z,985.4
2019-03-05T05:30:44.188Z,985.41
2019-03-05T05:31:44.207Z,985.41
2019-03-05T05:32:44.225Z,985.43
2019-03-05T05:33:44.243Z,985.45
2019-03-05T05:34:44.263Z,985.39
2019-03-05T05:35:44.280Z,985.41
2019-03-05T05:36:44.301Z,985.4
2019-03-05T05:37:44.322Z,985.34
2019-03-05T05:38:44.336Z,985.4
2019-03-05T05:39:44.353Z,985.37
2019-03-05T05:40:44.372Z,985.4
2019-03-05T05:41:44.391Z,985.42
2019-03-05T05:42:44.409Z,985.43
2019-03-05T05:43:44.427Z,985.41
2019-03-05T05:44:44.445Z,985.44
2019-03-05T05:45:44.463Z,985.41
2019-03-05T05:46:44.482Z,985.43
2019-03-05T05:47:44.500Z,985.45
2019-03-05T05:48:44.518Z,985.47
2019-03-05T05:49:44.537Z,985.44
2019-03-05T05:50:44.555Z,985.44
2019-03-05T05:51:44.575Z,985.5
2019-03-05T05:52:44.592Z,985.48
2019-03-05T05:53:44.612Z,985.46
2019-03-05T05:54:44.628Z,985.46
2019-03-05T05:55:44.647Z,985.5
2019-03-05T05:56:44.666Z,985.51
2019-03-05T05:57:44.684Z,985.47
2019-03-05T05:58:44.705Z,985.52
2019-03-05T05:59:44.724Z,985.54
2019-03-05T06:00:44.739Z,985.52
2019-03-05T06:01:44.757Z,985.52
2019-03-05T06:02:44.775Z,985.52
2019-03-05T06:03:44.793Z,985.49
2019-03-05T06:04:44.819Z,985.49
2019-03-05T06:05:44.829Z,985.49
2019-03-05T06:06:44.848Z,985.45
2019-03-05T06:07:44.867Z,985.45
2019-03-05T06:08:44.886Z,985.51
2019-03-05T06:09:44.903Z,985.5
2019-03-05T06:10:44.921Z,985.47
2019-03-05T06:11:44.947Z,985.47
2019-03-05T06:12:44.959Z,985.43
2019-03-05T06:13:44.975Z,985.49
2019-03-05T06:14:44.996Z,985.53
2019-03-05T06:15:45.014Z,985.5
2019-03-05T06:16:45.031Z,985.5
2019-03-05T06:17:45.049Z,985.54
2019-03-05T06:18:45.068Z,985.52
2019-03-05T06:19:45.087Z,985.54
2019-03-05T06:20:45.107Z,985.6
2019-03-05T06:21:45.123Z,985.54
2019-03-05T06:22:45.141Z,985.51
2019-03-05T06:23:45.159Z,985.52
2019-03-05T06:24:45.177Z,985.6
2019-03-05T06:25:45.198Z,985.57
2019-03-05T06:26:45.215Z,985.54
2019-03-05T06:27:45.234Z,985.61
2019-03-05T06:28:45.252Z,985.6
2019-03-05T06:29:45.271Z,985.61
2019-03-05T06:30:45.289Z,985.62
2019-03-05T06:31:45.308Z,985.6
2019-03-05T06:32:45.329Z,985.62
2019-03-05T06:33:45.345Z,985.65
2019-03-05T06:34:45.362Z,985.6
2019-03-05T06:35:45.395Z,985.64
2019-03-05T06:36:45.401Z,985.66
2019-03-05T06:37:45.419Z,985.66
2019-03-05T06:38:45.436Z,985.68
2019-03-05T06:39:45.456Z,985.67
2019-03-05T06:40:45.473Z,985.72
2019-03-05T06:41:45.492Z,985.72
2019-03-05T06:42:45.509Z,985.67
2019-03-05T06:43:45.528Z,985.72
2019-03-05T06:44:45.549Z,985.68
2019-03-05T06:45:45.565Z,985.68
2019-03-05T06:46:45.583Z,985.73
2019-03-05T06:47:45.603Z,985.67
2019-03-05T06:48:45.622Z,985.67
2019-03-05T06:49:45.639Z,985.7
2019-03-05T06:50:45.656Z,985.66
2019-03-05T06:51:45.675Z,985.81
2019-03-05T06:52:45.694Z,985.73
2019-03-05T06:53:45.711Z,985.8
2019-03-05T06:54:45.731Z,985.77
2019-03-05T06:55:45.749Z,985.83
2019-03-05T06:56:45.814Z,985.8
2019-03-05T06:57:45.785Z,985.81
2019-03-05T06:58:45.803Z,985.81
2019-03-05T06:59:45.822Z,985.83
2019-03-05T07:00:45.841Z,985.83
2019-03-05T07:01:45.858Z,985.85
2019-03-05T07:02:45.877Z,985.9
2019-03-05T07:03:45.894Z,985.88
2019-03-05T07:04:45.913Z,985.9
2019-03-05T07:05:45.936Z,985.86
2019-03-05T07:06:45.949Z,985.91
2019-03-05T07:07:45.968Z,985.88
2019-03-05T07:08:45.986Z,985.89
2019-03-05T07:09:46.013Z,985.88
2019-03-05T07:10:46.024Z,985.86
2019-03-05T07:11:46.041Z,985.85
2019-03-05T07:12:46.059Z,985.86
2019-03-05T07:13:46.078Z,985.88
2019-03-05T07:14:46.095Z,985.87
2019-03-05T07:15:46.114Z,985.94
2019-03-05T07:16:46.132Z,985.95
2019-03-05T07:17:46.150Z,985.93
2019-03-05T07:18:46.168Z,985.94
2019-03-05T07:19:54.498Z,985.9
2019-03-05T07:20:46.206Z,985.94
2019-03-05T07:21:46.226Z,985.97
2019-03-05T07:22:46.242Z,985.96
2019-03-05T07:23:46.267Z,985.89
2019-03-05T07:24:46.285Z,985.96
2019-03-05T07:25:46.397Z,985.96
2019-03-05T07:26:46.315Z,985.95
2019-03-05T07:27:46.335Z,985.89
2019-03-05T07:28:46.403Z,985.91
2019-03-05T07:29:46.369Z,985.94
2019-03-05T07:30:46.387Z,985.93
2019-03-05T07:31:46.409Z,985.94
2019-03-05T07:32:46.429Z,985.97
2019-03-05T07:33:46.443Z,985.95
2019-03-05T07:34:46.462Z,985.95
2019-03-05T07:35:46.483Z,985.97
2019-03-05T07:36:46.500Z,985.99
2019-03-05T07:37:46.518Z,986.09
2019-03-05T07:38:46.538Z,986.09
2019-03-05T07:39:46.556Z,986
2019-03-05T07:40:46.574Z,986.08
2019-03-05T07:41:48.211Z,986.02
2019-03-05T07:42:46.612Z,986.11
2019-03-05T07:43:46.630Z,986.12
2019-03-05T07:44:46.648Z,986.17
2019-03-05T07:45:46.666Z,986.13
2019-03-05T07:46:46.687Z,986.07
2019-03-05T07:47:46.704Z,986.14
2019-03-05T07:48:46.722Z,986.2
2019-03-05T07:49:46.739Z,986.13
2019-03-05T07:50:46.759Z,986.24
2019-03-05T07:51:46.778Z,986.19
2019-03-05T07:52:46.796Z,986.21
2019-03-05T07:53:46.817Z,986.24
2019-03-05T07:54:46.833Z,986.26
2019-03-05T07:55:46.852Z,986.22
2019-03-05T07:56:46.871Z,986.31
2019-03-05T07:57:46.892Z,986.33
2019-03-05T07:58:46.907Z,986.27
2019-03-05T07:59:46.926Z,986.26
2019-03-05T08:00:47.025Z,986.34
2019-03-05T08:01:46.963Z,986.39
2019-03-05T08:02:46.983Z,986.41
2019-03-05T08:03:47.000Z,986.42
2019-03-05T08:04:47.019Z,986.44
2019-03-05T08:05:47.586Z,986.46
2019-03-05T08:06:47.056Z,986.39
2019-03-05T08:07:47.075Z,986.47
2019-03-05T08:08:47.094Z,986.45
2019-03-05T08:09:47.112Z,986.43
2019-03-05T08:10:47.134Z,986.38
2019-03-05T08:11:47.149Z,986.42
2019-03-05T08:12:47.168Z,986.44
2019-03-05T08:13:47.184Z,986.52
2019-03-05T08:14:47.205Z,986.44
2019-03-05T08:15:47.223Z,986.48
2019-03-05T08:16:47.242Z,986.47
2019-03-05T08:17:47.275Z,986.48
2019-03-05T08:18:47.279Z,986.49
2019-03-05T08:19:47.299Z,986.41
2019-03-05T08:20:47.417Z,986.42
2019-03-05T08:21:47.334Z,986.49
2019-03-05T08:22:47.356Z,986.53
2019-03-05T08:23:48.413Z,986.57
2019-03-05T08:24:47.392Z,986.59
2019-03-05T08:25:47.410Z,986.63
2019-03-05T08:26:47.429Z,986.55
2019-03-05T08:27:47.446Z,986.6
2019-03-05T08:28:47.463Z,986.57
2019-03-05T08:29:47.489Z,986.65
2019-03-05T08:30:47.501Z,986.56
2019-03-05T08:31:47.519Z,986.59
2019-03-05T08:32:47.538Z,986.61
2019-03-05T08:33:47.556Z,986.59
2019-03-05T08:34:47.576Z,986.66
2019-03-05T08:35:47.594Z,986.68
2019-03-05T08:36:47.611Z,986.68
2019-03-05T08:37:47.629Z,986.72
2019-03-05T08:38:47.651Z,986.68
2019-03-05T08:39:47.669Z,986.74
2019-03-05T08:40:47.687Z,986.74
2019-03-05T08:41:47.705Z,986.76
2019-03-05T08:42:47.723Z,986.81
2019-03-05T08:43:47.743Z,986.82
2019-03-05T08:44:50.585Z,986.85
2019-03-05T08:45:47.780Z,986.83
2019-03-05T08:46:47.797Z,986.85
2019-03-05T08:47:47.815Z,986.87
2019-03-05T08:48:47.844Z,986.9
2019-03-05T08:49:47.852Z,987
2019-03-05T08:50:47.871Z,986.92
2019-03-05T08:51:47.890Z,986.93
2019-03-05T08:52:47.909Z,987.06
2019-03-05T08:53:49.629Z,987.03
2019-03-05T08:54:47.945Z,987.07
2019-03-05T08:55:47.964Z,987.07
2019-03-05T08:56:47.984Z,987.1
2019-03-05T08:57:48.001Z,987.12
2019-03-05T08:58:48.019Z,987.13
2019-03-05T08:59:48.038Z,987.14
2019-03-05T09:00:48.331Z,987.18
2019-03-05T09:01:48.078Z,987.19
2019-03-05T09:02:49.242Z,987.26
2019-03-05T09:03:48.113Z,987.24
2019-03-05T09:04:48.131Z,987.32
2019-03-05T09:05:48.149Z,987.27
2019-03-05T09:06:48.267Z,987.25
2019-03-05T09:07:48.187Z,987.26
2019-03-05T09:08:48.254Z,987.3
2019-03-05T09:09:48.223Z,987.29
2019-03-05T09:10:48.241Z,987.29
2019-03-05T09:11:48.259Z,987.27
2019-03-05T09:12:48.279Z,987.3
2019-03-05T09:13:48.310Z,987.26
2019-03-05T09:14:48.316Z,987.3
2019-03-05T09:15:48.332Z,987.27
2019-03-05T09:16:48.385Z,987.31
2019-03-05T09:17:48.371Z,987.28
2019-03-05T09:18:48.389Z,987.29
2019-03-05T09:19:48.407Z,987.27
2019-03-05T09:20:48.427Z,987.26
2019-03-05T09:21:49.293Z,987.28
2019-03-05T09:22:48.463Z,987.32
2019-03-05T09:23:48.481Z,987.31
2019-03-05T09:24:48.503Z,987.28
2019-03-05T09:25:48.518Z,987.3
2019-03-05T09:26:51.359Z,987.28
2019-03-05T09:27:48.555Z,987.35
2019-03-05T09:28:48.575Z,987.32
2019-03-05T09:29:48.594Z,987.3
2019-03-05T09:30:48.612Z,987.35
2019-03-05T09:31:48.630Z,987.34
2019-03-05T09:32:48.651Z,987.34
2019-03-05T09:33:48.667Z,987.29
2019-03-05T09:34:48.685Z,987.37
2019-03-05T09:35:48.704Z,987.33
2019-03-05T09:36:51.117Z,987.32
2019-03-05T09:37:48.742Z,987.35
2019-03-05T09:38:48.760Z,987.41
2019-03-05T09:39:48.778Z,987.4
2019-03-05T09:40:48.799Z,987.45
2019-03-05T09:41:48.820Z,987.46
2019-03-05T09:42:48.834Z,987.44
2019-03-05T09:43:48.857Z,987.43
2019-03-05T09:44:48.871Z,987.43
2019-03-05T09:45:48.890Z,987.46
2019-03-05T09:46:48.909Z,987.45
2019-03-05T09:47:48.928Z,987.49
2019-03-05T09:48:49.095Z,987.47
2019-03-05T09:49:48.966Z,987.46
2019-03-05T09:50:48.984Z,987.49
2019-03-05T09:51:49.003Z,987.55
2019-03-05T09:52:54.648Z,987.51
2019-03-05T09:53:49.043Z,987.53
2019-03-05T09:54:49.058Z,987.53
2019-03-05T09:55:49.077Z,987.56
2019-03-05T09:56:49.094Z,987.6
2019-03-05T09:57:49.115Z,987.6
2019-03-05T09:58:49.134Z,987.56
2019-03-05T09:59:49.152Z,987.64
2019-03-05T10:00:49.170Z,987.65
2019-03-05T10:01:49.189Z,987.7
2019-03-05T10:02:49.208Z,987.68
2019-03-05T10:03:49.234Z,987.73
2019-03-05T10:04:49.246Z,987.68
2019-03-05T10:05:49.265Z,987.75
2019-03-05T10:06:49.283Z,987.75
2019-03-05T10:07:49.301Z,987.78
2019-03-05T10:08:49.320Z,987.78
2019-03-05T10:09:49.341Z,987.72
2019-03-05T10:10:49.358Z,987.75
2019-03-05T10:11:56.267Z,987.79
2019-03-05T10:12:49.396Z,987.75
2019-03-05T10:13:49.415Z,987.84
2019-03-05T10:14:49.434Z,987.81
2019-03-05T10:15:49.453Z,987.78
2019-03-05T10:16:49.473Z,987.85
2019-03-05T10:17:50.114Z,987.83
2019-03-05T10:18:49.508Z,987.85
2019-03-05T10:19:49.529Z,987.85
2019-03-05T10:20:49.546Z,987.9
2019-03-05T10:21:49.565Z,987.86
2019-03-05T10:22:49.583Z,987.9
2019-03-05T10:23:49.604Z,987.88
2019-03-05T10:24:49.620Z,987.95
2019-03-05T10:25:49.640Z,987.89
2019-03-05T10:26:49.718Z,987.85
2019-03-05T10:27:49.678Z,987.9
2019-03-05T10:28:49.695Z,987.88
2019-03-05T10:29:52.232Z,987.92
2019-03-05T10:30:49.733Z,987.93
2019-03-05T10:31:49.753Z,987.91
2019-03-05T10:32:49.821Z,987.95
2019-03-05T10:33:49.792Z,987.92
2019-03-05T10:34:49.807Z,987.94
2019-03-05T10:35:49.828Z,987.95
2019-03-05T10:36:49.845Z,987.93
2019-03-05T10:37:49.864Z,987.98
2019-03-05T10:38:57.065Z,987.95
2019-03-05T10:39:49.904Z,988
2019-03-05T10:40:49.920Z,988.02
2019-03-05T10:41:49.939Z,988.08
2019-03-05T10:42:49.961Z,988.14
2019-03-05T10:43:49.977Z,988.12
2019-03-05T10:44:49.996Z,988.1
2019-03-05T10:45:50.015Z,988.13
2019-03-05T10:46:50.031Z,988.07
2019-03-05T10:47:50.052Z,988.18
2019-03-05T10:48:50.075Z,988.14
2019-03-05T10:49:50.089Z,988.2
2019-03-05T10:50:50.107Z,988.21
2019-03-05T10:51:50.125Z,988.21
2019-03-05T10:52:50.143Z,988.19
2019-03-05T10:53:50.164Z,988.21
2019-03-05T10:54:50.183Z,988.25
2019-03-05T10:55:50.201Z,988.25
2019-03-05T10:56:50.220Z,988.24
2019-03-05T10:57:50.238Z,988.22
2019-03-05T10:58:50.258Z,988.29
2019-03-05T10:59:50.277Z,988.26
2019-03-05T11:00:50.295Z,988.28
2019-03-05T11:01:50.316Z,988.3
2019-03-05T11:02:50.332Z,988.31
2019-03-05T11:03:50.351Z,988.31
2019-03-05T11:04:52.293Z,988.31
2019-03-05T11:05:50.390Z,988.35
2019-03-05T11:06:50.408Z,988.29
2019-03-05T11:07:50.427Z,988.35
2019-03-05T11:08:50.444Z,988.39
2019-03-05T11:09:50.464Z,988.35
2019-03-05T11:10:50.483Z,988.38
2019-03-05T11:11:50.502Z,988.37
2019-03-05T11:12:50.519Z,988.41
2019-03-05T11:13:50.539Z,988.44
2019-03-05T11:14:50.557Z,988.4
2019-03-05T11:15:50.577Z,988.44
2019-03-05T11:16:50.596Z,988.47
2019-03-05T11:17:50.618Z,988.51
2019-03-05T11:18:50.635Z,988.46
2019-03-05T11:19:50.652Z,988.48
2019-03-05T11:20:50.672Z,988.48
2019-03-05T11:21:50.764Z,988.46
2019-03-05T11:22:50.709Z,988.49
2019-03-05T11:23:50.728Z,988.51
2019-03-05T11:24:50.747Z,988.49
2019-03-05T11:25:50.767Z,988.49
2019-03-05T11:26:50.784Z,988.52
2019-03-05T11:27:50.803Z,988.57
2019-03-05T11:28:50.822Z,988.6
2019-03-05T11:29:50.843Z,988.65
2019-03-05T11:30:50.861Z,988.59
2019-03-05T11:31:50.880Z,988.61
2019-03-05T11:32:50.899Z,988.62
2019-03-05T11:33:50.919Z,988.62
2019-03-05T11:34:50.937Z,988.63
2019-03-05T11:35:50.955Z,988.64
2019-03-05T11:36:50.974Z,988.64
2019-03-05T11:37:50.996Z,988.63
2019-03-05T11:38:51.013Z,988.66
2019-03-05T11:39:51.032Z,988.66
2019-03-05T11:40:51.053Z,988.56
2019-03-05T11:41:51.070Z,988.64
2019-03-05T11:42:51.092Z,988.63
2019-03-05T11:43:51.109Z,988.63
2019-03-05T11:44:58.975Z,988.68
2019-03-05T11:45:51.147Z,988.66
2019-03-05T11:46:51.166Z,988.64
2019-03-05T11:47:51.185Z,988.65
2019-03-05T11:48:51.206Z,988.67
2019-03-05T11:49:51.225Z,988.66
2019-03-05T11:50:51.668Z,988.65
2019-03-05T11:51:51.266Z,988.69
2019-03-05T11:52:51.282Z,988.71
2019-03-05T11:53:51.303Z,988.7
2019-03-05T11:54:51.321Z,988.69
2019-03-05T11:55:51.341Z,988.74
2019-03-05T11:56:51.359Z,988.75
2019-03-05T11:57:51.378Z,988.71
2019-03-05T11:58:51.399Z,988.77
2019-03-05T11:59:51.417Z,988.71
2019-03-05T12:00:51.436Z,988.72
2019-03-05T12:01:51.458Z,988.74
2019-03-05T12:02:51.476Z,988.75
2019-03-05T12:03:51.495Z,988.76
2019-03-05T12:04:51.514Z,988.77
2019-03-05T12:05:51.535Z,988.74
2019-03-05T12:06:51.553Z,988.8
2019-03-05T12:07:51.572Z,988.8
2019-03-05T12:08:51.596Z,988.89
2019-03-05T12:09:51.611Z,988.81
2019-03-05T12:10:51.632Z,988.83
2019-03-05T12:11:51.650Z,988.84
2019-03-05T12:12:51.670Z,988.83
2019-03-05T12:13:51.688Z,988.9
2019-03-05T12:14:51.706Z,988.85
2019-03-05T12:15:51.728Z,988.88
2019-03-05T12:16:51.747Z,988.83
2019-03-05T12:17:51.767Z,988.84
2019-03-05T12:18:51.785Z,988.84
2019-03-05T12:19:51.805Z,988.84
2019-03-05T12:20:51.895Z,988.84
2019-03-05T12:21:51.842Z,988.79
2019-03-05T12:22:51.863Z,988.81
2019-03-05T12:23:51.882Z,988.76
2019-03-05T12:24:51.902Z,988.81
2019-03-05T12:25:51.921Z,988.81
2019-03-05T12:26:51.941Z,988.84
2019-03-05T12:27:51.960Z,988.84
2019-03-05T12:28:51.980Z,988.86
2019-03-05T12:29:51.999Z,988.87
2019-03-05T12:30:52.019Z,988.84
2019-03-05T12:31:52.038Z,988.86